EST,Max TemperatureF,Mean TemperatureF,Min TemperatureF,Max Dew PointF,MeanDew PointF,Min DewpointF,Max Humidity, Mean Humidity, Min Humidity, Max Sea Level PressureIn, Mean Sea Level PressureIn, Min Sea Level PressureIn, Max VisibilityMiles, Mean VisibilityMiles, Min VisibilityMiles, Max Wind SpeedMPH, Mean Wind SpeedMPH, Max Gust SpeedMPH,PrecipitationIn, CloudCover, Events, WindDirDegrees
2013-11-1,51,47,43,48,43,39,93,81,68,29.78,29.61,29.43,10,10,8,29,9,39,0.01,7,Rain,255
2013-11-2,50,44,37,45,40,36,100,81,61,30.15,29.93,29.77,10,9,5,18,7,25,0.01,6,Rain,284
2013-11-3,52,41,29,39,34,28,100,75,50,30.34,30.24,30.14,10,4,0,9,4,13,0.00,3,Fog,123
2013-11-4,57,48,39,40,37,35,85,68,51,30.33,30.28,30.22,10,10,10,16,8,22,0.00,1,,148
2013-11-5,56,52,47,48,44,40,93,77,61,30.34,30.25,30.08,10,10,10,16,7,21,0.03,6,,170
2013-11-6,59,48,36,52,46,35,100,79,57,30.15,30.01,29.91,10,8,2,22,11,28,0.22,8,Rain,234
2013-11-7,47,38,28,34,29,26,92,69,45,30.32,30.25,30.16,10,10,10,21,8,26,0.00,2,,275
2013-11-8,50,37,24,31,28,25,100,73,46,30.38,30.28,30.13,10,9,5,12,4,20,0.00,0,,210
2013-11-9,61,51,41,39,34,27,71,57,42,30.12,30.04,29.97,10,10,10,23,11,32,0.00,1,,236
2013-11-10,48,40,31,35,30,28,96,73,49,30.36,30.29,30.14,10,10,10,17,6,25,0.00,1,,288
2013-11-11,50,40,30,41,32,25,100,78,56,30.42,30.26,30.11,10,6,1,22,8,26,0.12,8,Rain-Snow,340
2013-11-12,33,27,21,27,23,19,92,81,69,30.68,30.61,30.40,10,9,5,15,8,18,T,6,Snow,315
2013-11-13,38,27,16,20,18,15,92,68,44,30.66,30.53,30.32,10,10,10,17,6,22,0.00,0,,225
2013-11-14,52,41,29,23,20,18,69,48,26,30.31,30.17,30.07,10,10,10,20,10,29,0.00,0,,210
2013-11-15,54,47,40,35,27,22,70,54,38,30.09,30.05,30.02,10,10,10,16,7,21,0.00,3,,203
2013-11-16,63,51,39,58,48,35,93,79,65,30.04,29.90,29.73,10,7,5,20,9,30,0.11,6,Rain,169
2013-11-17,66,60,55,62,58,52,97,91,84,29.80,29.56,29.34,10,6,1,20,12,35,0.79,8,Rain-Thunderstorm,193
2013-11-18,,,,,,,,,,30.23,30.03,29.83,,,,,,,0.00,,,-1
2013-11-19,42,34,28,29,27,25,88,74,58,30.37,30.32,30.25,10,10,10,9,7,,0.00,0,,93
2013-11-20,46,36,25,35,28,23,92,73,53,30.33,30.25,30.15,10,10,10,16,8,23,T,2,Rain,117
2013-11-21,48,46,43,48,44,34,100,80,60,30.24,30.18,30.16,10,5,2,10,5,14,0.56,8,Rain,185
2013-11-22,48,38,27,48,39,25,100,88,75,30.48,30.30,30.17,10,7,2,20,9,26,0.05,7,Rain,333
2013-11-23,28,22,16,25,15,6,92,71,50,30.69,30.54,30.44,10,10,10,23,11,29,0.00,3,,317
2013-11-24,25,18,11,9,6,2,73,55,36,30.75,30.65,30.51,10,10,10,14,6,20,0.00,0,,282
2013-11-25,32,25,17,25,15,8,67,58,49,30.50,30.29,30.16,10,10,10,15,8,22,T,5,Snow,219
2013-11-26,37,33,28,27,25,20,85,75,64,30.19,30.08,29.99,10,10,8,18,6,25,0.00,8,,278
2013-11-27,29,22,14,23,11,7,80,63,46,30.32,30.19,30.06,10,10,10,22,9,29,T,5,,299
2013-11-28,36,27,18,18,14,11,80,61,41,30.48,30.33,30.24,10,10,10,18,7,25,0.00,3,,240
2013-11-29,37,25,13,20,17,11,88,70,52,30.66,30.57,30.48,10,10,7,9,3,15,0.00,0,,118
2013-11-30,50,39,27,27,24,21,75,56,36,30.48,30.28,30.13,10,10,10,17,5,24,0.00,0,,187